X  Fermer Données météorologiques d'aviation de Metar     LFBE Bergerac-Roumanière Airport
Température
26°C Température
16°C Point de rosée
54% Humidité



Vent
2 M/S
5 MPH
8 KM/H
4 KTS



30°
NNE
Conditions actuelles

Clair Clair
Pression 1011.85 (hPa) - 29.88 (inHg)
Visibilité 6 (mile) - 9.7 (km)
Aéroport
Code de l'aéroport LFBE

Emplacement: Bergerac-Roumanière Airport
Distance: 26 (km)

Metar:
LFBE 141300Z AUTO 03004KT 330V130 CAVOK 26/16 Q1012 NOSIG

Temps: 14-07-2024 15:00 CEST